Ana Sayfa
METAR-TAF:

METAR-TAF

Havaalanları :

Wilkes County Airport

North Wilkesboro, Kuzey Carolina, Amerika Birleşik Devletleri

Enlem: 36-13N, Boylam: 081-05W, yükseklik: 396 m

Güncel hava durumu gözlemi

Rapor saat 15:15 UTC de 12 dakika önce yapıldı.
Rüzgar güneybatıdan 4 kt
Sıcaklık 28°C
Nem 70%
Basınç 1020 hPa
Görüş mesafesi: 16.1 km
Açık gökyüzü

METAR: KUKF 211515Z AUTO 22004KT 10SM CLR 28/22 A3013 RMK AO2

Saat: 11:27 (15:27 UTC)


TAF: eksik

4.000'den fazla havaalanı için hava durumu gözlemleri ve tahminleri (METAR ve TAF raporları).

Kullanılabilir istasyonlar harita üzerinde sarı ve kırmızı noktalarla gösterilir.

İstasyonun adını görmek için fareyi noktanın üzerinde gezdirin.

Sonrasında hava gözlem ve tahminlerini görmek için tıklayın.

Haritayı değiştirmek için: yaklaştırmak için siyah artı işaretli yeşil düğmeye ve uzaklaştırmak için de eksi işaretli düğmeye hızla tıklayın; bitişik haritalar için yeşil okları kullanın.


METAR-TAF: